Time;durP1;ratioP1;P1;durP2;ratioP2;P2;SDS_P1;SDS_P2;PMS_P1;PMS_P2;Temp;Humidity;BMP_temperature;BMP_pressure;BME280_temperature;BME280_humidity;BME280_pressure;Samples;Min_cycle;Max_cycle;Signal;HPM_P1;HPM_P2
2023/07/29 00:01:40;;;;;;;8.05;3.20;;;;;;;24.15;77.52;97704.72;4502636;31;20121;-77
2023/07/29 00:04:11;;;;;;;6.60;3.28;;;;;;;24.01;77.77;97705.31;4504027;31;20132;-77
2023/07/29 00:06:38;;;;;;;9.80;3.25;;;;;;;23.82;79.72;97700.28;4503660;31;20429;-77
2023/07/29 00:09:05;;;;;;;7.62;3.15;;;;;;;23.75;79.32;97699.28;4503898;31;20494;-77
2023/07/29 00:11:33;;;;;;;7.15;3.17;;;;;;;23.72;79.79;97699.59;4503937;31;20089;-77
2023/07/29 00:14:03;;;;;;;7.87;2.80;;;;;;;23.65;80.25;97700.22;4503646;31;20080;-77
2023/07/29 00:16:30;;;;;;;7.85;3.33;;;;;;;23.91;78.74;97694.06;4503798;31;20429;-77
2023/07/29 00:18:57;;;;;;;7.15;3.22;;;;;;;23.48;81.56;97689.69;4503860;31;20535;-77
2023/07/29 00:21:24;;;;;;;7.65;2.87;;;;;;;23.38;82.49;97692.41;4503306;31;20099;-77
2023/07/29 00:23:51;;;;;;;7.75;3.20;;;;;;;23.57;81.39;97691.41;4503932;31;20167;-77
2023/07/29 00:26:18;;;;;;;7.53;3.15;;;;;;;23.55;81.27;97698.63;4503802;31;20079;-77
2023/07/29 00:28:45;;;;;;;9.55;3.65;;;;;;;23.82;79.60;97695.00;4503432;31;20485;-77
2023/07/29 00:31:12;;;;;;;7.05;3.25;;;;;;;24.35;75.32;97700.06;4503754;31;20116;-77
2023/07/29 00:33:39;;;;;;;6.62;3.00;;;;;;;23.85;78.38;97698.19;4503904;31;20151;-77
2023/07/29 00:36:06;;;;;;;11.00;2.90;;;;;;;23.86;79.00;97694.56;4503322;31;20538;-78
2023/07/29 00:38:33;;;;;;;6.03;2.78;;;;;;;23.60;80.75;97699.00;4503492;31;20437;-77
2023/07/29 00:41:01;;;;;;;8.55;3.30;;;;;;;24.02;78.55;97690.31;4503775;31;20100;-78
2023/07/29 00:43:28;;;;;;;6.45;3.10;;;;;;;23.51;81.32;97694.66;4502278;31;20113;-78
2023/07/29 00:45:57;;;;;;;9.07;3.20;;;;;;;23.09;83.59;97687.47;4503637;31;20446;-78
2023/07/29 00:48:25;;;;;;;6.53;3.00;;;;;;;23.20;83.48;97684.59;4503664;31;20103;-77
2023/07/29 00:50:54;;;;;;;7.68;3.22;;;;;;;22.89;85.30;97681.53;4503287;31;20092;-77
2023/07/29 00:53:21;;;;;;;6.82;3.10;;;;;;;23.19;83.58;97676.84;4503714;31;20448;-77
2023/07/29 00:55:48;;;;;;;6.95;3.00;;;;;;;23.81;80.15;97681.00;4503294;31;20076;-77
2023/07/29 00:58:15;;;;;;;6.12;2.90;;;;;;;23.86;80.62;97681.38;4503584;31;20104;-77
2023/07/29 01:00:42;;;;;;;7.12;3.10;;;;;;;23.85;80.82;97671.84;4503628;31;20096;-77
2023/07/29 01:03:09;;;;;;;6.90;3.00;;;;;;;23.51;82.83;97670.97;4503315;31;20188;-77
2023/07/29 01:06:09;;;;;;;8.70;3.45;;;;;;;23.71;81.67;97679.47;4503536;31;20147;-77
2023/07/29 01:08:48;;;;;;;6.37;2.65;;;;;;;23.65;82.06;97679.13;4498199;31;20444;-77
2023/07/29 01:11:17;;;;;;;8.15;2.80;;;;;;;23.91;80.04;97681.72;4503277;31;20559;-77
2023/07/29 01:13:54;;;;;;;6.20;3.05;;;;;;;23.84;79.93;97677.25;4503576;31;20104;-77
2023/07/29 01:16:26;;;;;;;6.68;2.80;;;;;;;24.05;78.44;97682.94;4502504;31;20080;-77
2023/07/29 01:18:53;;;;;;;6.47;3.00;;;;;;;24.37;76.18;97678.81;4501930;31;20099;-77
2023/07/29 01:21:21;;;;;;;6.20;2.83;;;;;;;24.24;76.88;97682.69;4502369;31;20533;-77
2023/07/29 01:23:53;;;;;;;5.57;3.00;;;;;;;24.30;77.28;97686.47;4503165;31;20072;-77
2023/07/29 01:26:20;;;;;;;5.90;2.67;;;;;;;24.35;78.04;97686.88;4503457;31;20147;-77
2023/07/29 01:28:47;;;;;;;7.22;2.60;;;;;;;24.30;76.14;97691.75;4503464;31;20118;-77
2023/07/29 01:31:38;;;;;;;7.87;2.80;;;;;;;24.09;75.49;97692.19;4503149;31;20095;-77
2023/07/29 01:34:28;;;;;;;8.15;3.12;;;;;;;23.61;78.46;97682.25;4501543;31;20163;-77
2023/07/29 01:36:57;;;;;;;6.00;3.00;;;;;;;23.42;80.33;97674.53;4502310;31;20160;-77
2023/07/29 01:39:32;;;;;;;8.07;3.28;;;;;;;23.23;81.47;97672.91;4501756;31;20100;-77
2023/07/29 01:41:59;;;;;;;7.78;3.78;;;;;;;23.21;82.48;97667.81;4502292;31;20231;-77
2023/07/29 01:44:26;;;;;;;7.97;3.10;;;;;;;23.11;83.26;97666.25;4503365;31;20175;-77
2023/07/29 01:46:55;;;;;;;7.70;3.37;;;;;;;23.01;83.97;97655.81;4502848;31;20105;-77
2023/07/29 01:49:22;;;;;;;12.77;3.65;;;;;;;23.38;82.27;97666.91;4502156;31;20159;-77
2023/07/29 01:51:49;;;;;;;7.57;2.70;;;;;;;23.18;83.14;97670.75;4502855;31;20388;-77
2023/07/29 01:54:16;;;;;;;7.40;3.15;;;;;;;22.89;85.21;97665.75;4503269;31;20108;-77
2023/07/29 01:56:43;;;;;;;7.60;2.90;;;;;;;23.00;85.20;97670.78;4503068;31;20117;-77
2023/07/29 01:59:10;;;;;;;8.73;3.00;;;;;;;23.28;84.13;97671.47;4502808;31;20103;-77
2023/07/29 02:01:37;;;;;;;10.40;3.17;;;;;;;23.84;78.75;97672.00;4503166;31;20104;-77
2023/07/29 02:04:04;;;;;;;9.80;3.20;;;;;;;23.94;77.93;97670.06;4503220;31;20075;-77
2023/07/29 02:06:31;;;;;;;6.10;2.65;;;;;;;23.46;80.23;97668.78;4502758;31;20464;-77
2023/07/29 02:08:58;;;;;;;6.68;3.03;;;;;;;22.77;83.53;97673.03;4503148;31;20103;-77
2023/07/29 02:11:27;;;;;;;7.45;3.12;;;;;;;22.26;86.41;97671.03;4503103;31;20100;-77
2023/07/29 02:13:55;;;;;;;6.60;3.15;;;;;;;21.77;90.33;97666.97;4502732;31;20098;-77
2023/07/29 02:16:22;;;;;;;7.97;3.12;;;;;;;22.53;85.68;97670.97;4502898;31;20358;-77
2023/07/29 02:18:49;;;;;;;6.53;3.00;;;;;;;22.83;83.49;97674.22;4503043;31;20114;-77
2023/07/29 02:21:20;;;;;;;6.43;2.90;;;;;;;23.54;79.00;97683.81;4502714;31;20164;-77
2023/07/29 02:23:47;;;;;;;7.55;2.90;;;;;;;23.21;80.71;97675.72;4502877;31;20098;-77
2023/07/29 02:26:14;;;;;;;9.43;3.00;;;;;;;23.02;82.54;97684.59;4502812;31;20073;-77
2023/07/29 02:28:40;;;;;;;7.95;3.05;;;;;;;23.36;80.23;97681.22;4502449;31;20500;-77
2023/07/29 02:31:24;;;;;;;6.45;2.83;;;;;;;23.76;78.01;97693.03;4502804;31;20111;-77
2023/07/29 02:33:52;;;;;;;7.43;2.92;;;;;;;23.57;78.92;97696.66;4502523;31;20088;-77
2023/07/29 02:36:19;;;;;;;8.25;3.20;;;;;;;23.18;81.15;97694.44;4502651;31;20151;-77
2023/07/29 02:38:45;;;;;;;8.40;3.33;;;;;;;23.32;80.31;97693.88;4502411;31;20114;-77
2023/07/29 02:41:13;;;;;;;7.07;3.10;;;;;;;23.02;82.15;97694.31;4502351;31;20096;-77
2023/07/29 02:43:42;;;;;;;6.45;3.20;;;;;;;23.10;82.09;97694.38;4502976;31;20422;-77
2023/07/29 02:46:09;;;;;;;5.97;2.85;;;;;;;23.64;78.60;97692.47;4490235;31;20115;-77
2023/07/29 02:48:36;;;;;;;8.07;3.10;;;;;;;23.38;79.71;97692.41;4504292;31;20358;-77
2023/07/29 02:51:03;;;;;;;8.20;3.50;;;;;;;23.19;80.98;97693.47;4504485;31;20148;-77
2023/07/29 02:53:30;;;;;;;8.52;3.05;;;;;;;23.09;81.55;97695.34;4504557;31;20153;-77
2023/07/29 02:55:57;;;;;;;7.25;3.08;;;;;;;23.03;81.70;97694.16;4504155;31;20143;-77
2023/07/29 02:58:26;;;;;;;7.40;3.05;;;;;;;23.20;81.70;97689.84;4504528;31;20100;-77
2023/07/29 03:00:53;;;;;;;7.43;3.10;;;;;;;23.14;81.00;97692.25;4503411;31;20114;-77
2023/07/29 03:03:20;;;;;;;8.43;2.95;;;;;;;23.41;80.05;97686.03;4504198;31;20140;-77
2023/07/29 03:05:47;;;;;;;6.85;3.28;;;;;;;23.19;80.73;97680.31;4504428;31;20072;-77
2023/07/29 03:08:14;;;;;;;6.45;2.97;;;;;;;23.58;79.04;97686.00;4504392;31;20446;-77
2023/07/29 03:10:41;;;;;;;7.70;3.10;;;;;;;23.74;77.92;97687.91;4504016;31;20402;-77
2023/07/29 03:13:08;;;;;;;9.15;3.08;;;;;;;23.65;77.39;97689.66;4504454;31;20088;-77
2023/07/29 03:15:35;;;;;;;7.90;3.22;;;;;;;23.56;78.35;97693.19;4504279;31;20145;-77
2023/07/29 03:18:02;;;;;;;7.30;2.85;;;;;;;23.25;79.87;97687.56;4504075;31;20088;-77
2023/07/29 03:20:29;;;;;;;5.85;2.97;;;;;;;23.69;78.21;97692.81;4504387;31;20103;-77
2023/07/29 03:22:56;;;;;;;7.37;3.25;;;;;;;23.92;75.13;97699.19;4504043;31;20122;-77
2023/07/29 03:25:23;;;;;;;7.40;3.12;;;;;;;23.70;76.11;97696.28;4504179;31;20080;-77
2023/07/29 03:27:50;;;;;;;8.48;3.40;;;;;;;23.72;75.81;97694.31;4504408;31;20789;-77
2023/07/29 03:30:21;;;;;;;6.90;3.20;;;;;;;23.75;75.26;97694.00;4504055;31;20104;-77
2023/07/29 03:32:49;;;;;;;6.82;3.10;;;;;;;23.65;75.80;97686.22;4504154;31;20096;-77
2023/07/29 03:35:16;;;;;;;6.93;3.03;;;;;;;23.55;75.37;97690.72;4504161;31;20524;-77
2023/07/29 03:37:43;;;;;;;8.05;3.00;;;;;;;23.66;74.44;97688.69;4503669;31;20418;-77
2023/07/29 03:40:10;;;;;;;6.82;3.03;;;;;;;23.67;74.49;97692.97;4504347;31;20163;-77
2023/07/29 03:42:37;;;;;;;7.85;2.95;;;;;;;23.80;73.81;97692.53;4504294;31;20556;-77
2023/07/29 03:45:05;;;;;;;5.97;2.60;;;;;;;23.74;73.49;97692.34;4502552;31;20160;-77
2023/07/29 03:47:32;;;;;;;7.47;3.10;;;;;;;23.90;72.40;97690.63;4504167;31;20120;-77
2023/07/29 03:49:58;;;;;;;7.12;2.92;;;;;;;23.47;74.62;97694.13;4504249;31;20164;-77
2023/07/29 03:52:25;;;;;;;6.62;2.90;;;;;;;23.74;73.44;97689.72;4503724;31;20426;-77
2023/07/29 03:54:52;;;;;;;6.37;3.12;;;;;;;23.98;72.51;97692.47;4504016;31;20422;-77
2023/07/29 03:57:19;;;;;;;6.25;2.90;;;;;;;24.07;71.94;97690.69;4503641;31;20106;-77
2023/07/29 03:59:46;;;;;;;7.25;2.95;;;;;;;24.24;70.26;97695.03;4503733;31;20104;-77
2023/07/29 04:02:14;;;;;;;6.62;2.92;;;;;;;24.42;68.78;97706.31;4504106;31;20808;-77
2023/07/29 04:04:42;;;;;;;7.20;2.95;;;;;;;24.17;71.01;97704.56;4502954;31;20096;-77
2023/07/29 04:07:09;;;;;;;6.85;3.00;;;;;;;24.33;71.78;97703.81;4503504;31;20445;-77
2023/07/29 04:09:36;;;;;;;6.40;3.10;;;;;;;23.88;74.76;97705.75;4504025;31;20233;-77
2023/07/29 04:12:03;;;;;;;6.18;2.87;;;;;;;24.11;74.41;97707.84;4502424;31;20079;-77
2023/07/29 04:14:30;;;;;;;6.40;3.08;;;;;;;24.06;74.84;97708.31;4502821;31;20098;-77
2023/07/29 04:16:57;;;;;;;7.50;3.03;;;;;;;24.31;73.70;97716.34;4503839;31;20157;-77
2023/07/29 04:19:24;;;;;;;7.20;2.90;;;;;;;24.26;73.21;97713.34;4502486;31;20117;-77
2023/07/29 04:21:51;;;;;;;6.82;2.90;;;;;;;24.43;74.27;97720.31;4502796;31;20461;-77
2023/07/29 04:24:20;;;;;;;6.03;2.85;;;;;;;24.72;72.86;97717.28;4503896;31;20113;-77
2023/07/29 04:26:47;;;;;;;6.43;2.67;;;;;;;25.55;69.60;97715.31;4503406;31;20096;-77
2023/07/29 04:29:14;;;;;;;8.48;2.97;;;;;;;26.70;63.23;97710.47;4502697;31;20099;-77
2023/07/29 04:31:41;;;;;;;5.65;2.22;;;;;;;27.57;58.59;97713.59;4503799;31;20403;-77
2023/07/29 04:34:08;;;;;;;6.65;2.70;;;;;;;28.29;56.47;97716.50;4503506;31;20490;-77
2023/07/29 04:36:35;;;;;;;6.85;3.25;;;;;;;28.80;54.36;97725.22;4502508;31;20748;-78
2023/07/29 04:39:03;;;;;;;9.55;2.60;;;;;;;29.37;52.40;97716.38;4503509;31;20106;-77
2023/07/29 04:41:30;;;;;;;6.60;2.78;;;;;;;30.07;49.11;97719.12;4503423;31;20091;-78
2023/07/29 04:43:57;;;;;;;6.37;2.50;;;;;;;30.53;47.26;97717.50;4503855;31;20127;-78
2023/07/29 04:46:24;;;;;;;8.85;2.40;;;;;;;31.46;44.08;97724.81;4503594;31;20088;-78
2023/07/29 04:48:50;;;;;;;7.87;2.30;;;;;;;32.22;42.73;97730.44;4503366;31;20091;-78
2023/07/29 04:51:17;;;;;;;7.57;2.30;;;;;;;32.73;40.71;97733.12;4503745;31;20091;-78
2023/07/29 04:53:44;;;;;;;5.37;2.40;;;;;;;33.20;38.82;97739.03;4503553;31;20508;-78
2023/07/29 04:56:11;;;;;;;5.78;2.30;;;;;;;33.52;38.09;97737.16;4503175;31;20105;-78
2023/07/29 04:58:38;;;;;;;7.78;2.47;;;;;;;33.86;38.25;97733.12;4503718;31;20084;-78
2023/07/29 05:01:05;;;;;;;5.25;2.37;;;;;;;34.34;37.00;97740.44;4503448;31;20478;-78
2023/07/29 05:03:33;;;;;;;4.90;2.20;;;;;;;34.54;38.08;97745.56;4503681;31;20152;-78
2023/07/29 05:05:59;;;;;;;5.80;2.20;;;;;;;34.84;35.70;97748.28;4503486;31;20100;-78
2023/07/29 05:08:27;;;;;;;6.53;2.28;;;;;;;35.35;36.11;97761.16;4502198;31;20111;-78
2023/07/29 05:10:54;;;;;;;5.37;2.50;;;;;;;35.88;34.22;97757.63;4503657;31;20516;-78
2023/07/29 05:13:22;;;;;;;4.80;1.90;;;;;;;36.37;34.04;97760.03;4503525;31;20099;-78
2023/07/29 05:15:49;;;;;;;4.18;2.00;;;;;;;36.18;33.27;97762.84;4503134;31;20135;-78
2023/07/29 05:18:17;;;;;;;3.37;1.92;;;;;;;35.68;33.26;97757.12;4503669;31;20164;-78
2023/07/29 05:20:44;;;;;;;3.60;1.75;;;;;;;34.83;34.15;97752.00;4503550;31;20130;-78
2023/07/29 05:23:11;;;;;;;3.15;1.67;;;;;;;34.02;34.96;97746.97;4503205;31;20076;-78
2023/07/29 05:25:38;;;;;;;3.45;1.90;;;;;;;32.65;37.29;97757.44;4503337;31;20116;-78
2023/07/29 05:28:04;;;;;;;4.40;2.00;;;;;;;32.70;37.17;97752.25;4503526;31;20122;-78
2023/07/29 05:30:33;;;;;;;3.42;1.80;;;;;;;31.46;39.89;97743.50;4503241;31;20091;-78
2023/07/29 05:33:00;;;;;;;3.58;1.83;;;;;;;30.98;40.98;97739.13;4503391;31;20088;-78
2023/07/29 05:35:27;;;;;;;3.55;1.87;;;;;;;31.17;39.69;97742.84;4503330;31;20109;-78
2023/07/29 05:37:54;;;;;;;4.53;2.00;;;;;;;30.09;41.99;97746.34;4502768;31;20116;-78
2023/07/29 05:40:21;;;;;;;3.37;1.70;;;;;;;29.54;42.65;97743.50;4503419;31;20140;-78
2023/07/29 05:42:48;;;;;;;2.97;1.70;;;;;;;29.58;42.64;97750.09;4503465;31;20180;-78
2023/07/29 05:45:15;;;;;;;4.95;2.03;;;;;;;29.27;43.92;97752.25;4502991;31;20103;-77
2023/07/29 05:47:43;;;;;;;3.50;1.77;;;;;;;29.22;43.87;97755.47;4503190;31;20104;-78
2023/07/29 05:50:10;;;;;;;3.65;1.60;;;;;;;29.15;44.21;97759.09;4503375;31;20430;-78
2023/07/29 05:52:37;;;;;;;4.03;1.77;;;;;;;30.38;42.01;97763.91;4503147;31;20092;-78
2023/07/29 05:55:04;;;;;;;4.65;1.80;;;;;;;31.04;40.77;97772.12;4503308;31;20369;-78
2023/07/29 05:57:31;;;;;;;4.70;1.70;;;;;;;31.21;40.51;97776.09;4502832;31;20091;-78
2023/07/29 05:59:58;;;;;;;3.72;1.70;;;;;;;31.38;39.18;97774.69;4503142;31;20395;-78
2023/07/29 06:02:25;;;;;;;4.68;1.62;;;;;;;30.52;40.87;97778.94;4503182;31;20072;-78
2023/07/29 06:04:52;;;;;;;4.68;2.00;;;;;;;29.80;42.07;97779.28;4502772;31;20102;-78
2023/07/29 06:07:19;;;;;;;4.43;1.90;;;;;;;30.10;42.51;97778.09;4502964;31;20107;-78
2023/07/29 06:09:46;;;;;;;3.75;1.73;;;;;;;29.36;44.62;97783.81;4502012;31;20102;-78
2023/07/29 06:12:13;;;;;;;4.65;2.05;;;;;;;29.50;43.94;97774.16;4502577;31;20390;-78
2023/07/29 06:14:40;;;;;;;4.03;1.75;;;;;;;29.35;44.58;97786.69;4503198;31;20097;-78
2023/07/29 06:17:07;;;;;;;4.30;1.75;;;;;;;29.43;44.12;97778.56;4502910;31;20080;-77
2023/07/29 06:19:34;;;;;;;5.37;2.20;;;;;;;28.50;45.75;97777.56;4502144;31;20406;-78
2023/07/29 06:22:01;;;;;;;4.80;1.67;;;;;;;28.63;45.95;97781.38;4502917;31;20110;-78
2023/07/29 06:24:28;;;;;;;4.70;2.12;;;;;;;28.22;47.64;97777.38;4502971;31;20102;-78
2023/07/29 06:26:55;;;;;;;3.85;1.83;;;;;;;28.31;47.37;97782.63;4502379;31;20170;-78
2023/07/29 06:29:22;;;;;;;4.25;1.90;;;;;;;28.02;48.32;97786.88;4502926;31;20136;-77
2023/07/29 06:31:51;;;;;;;3.85;1.85;;;;;;;28.14;49.27;97788.06;4502903;31;20147;-78
2023/07/29 06:34:18;;;;;;;3.60;1.83;;;;;;;28.30;47.74;97783.63;4502451;31;20456;-78
2023/07/29 06:36:45;;;;;;;5.28;1.85;;;;;;;27.71;49.19;97786.19;4501378;31;20114;-78
2023/07/29 06:39:11;;;;;;;3.90;1.90;;;;;;;28.00;47.82;97783.59;4498001;31;139729;-78
2023/07/29 06:41:38;;;;;;;3.58;1.73;;;;;;;28.05;48.86;97788.34;4502408;31;20151;-77
2023/07/29 06:44:05;;;;;;;3.85;1.85;;;;;;;28.63;46.39;97786.69;4502671;31;20108;-78
2023/07/29 06:46:32;;;;;;;2.97;1.60;;;;;;;28.74;46.85;97783.56;4502180;31;20095;-77
2023/07/29 06:48:59;;;;;;;3.90;1.80;;;;;;;28.47;45.24;97782.41;4502663;31;20144;-78
2023/07/29 06:51:26;;;;;;;3.50;1.60;;;;;;;28.92;45.16;97783.16;4502499;31;20156;-78
2023/07/29 06:53:53;;;;;;;5.18;1.70;;;;;;;28.69;45.18;97786.75;4502155;31;20166;-78
2023/07/29 06:56:20;;;;;;;3.97;1.75;;;;;;;28.64;46.51;97780.38;4502373;31;20437;-78
2023/07/29 06:58:47;;;;;;;3.65;1.70;;;;;;;28.62;45.45;97785.88;4502316;31;20103;-77
2023/07/29 07:01:14;;;;;;;4.75;2.03;;;;;;;28.74;45.53;97771.12;4502110;31;20128;-78
2023/07/29 07:03:41;;;;;;;2.75;1.40;;;;;;;28.34;45.66;97775.09;4502405;31;20103;-78
2023/07/29 07:06:08;;;;;;;6.35;2.10;;;;;;;29.08;43.80;97783.75;4502243;31;20087;-77
2023/07/29 07:08:35;;;;;;;4.20;1.70;;;;;;;28.95;44.03;97783.63;4501637;31;20091;-78
2023/07/29 07:11:02;;;;;;;2.65;1.50;;;;;;;29.46;43.44;97777.38;4502236;31;20422;-77
2023/07/29 07:13:29;;;;;;;4.65;1.85;;;;;;;29.20;43.71;97778.75;4502012;31;20089;-77
2023/07/29 07:15:56;;;;;;;3.42;1.80;;;;;;;29.51;42.53;97770.47;4501085;31;20551;-77
2023/07/29 07:18:23;;;;;;;4.72;1.67;;;;;;;30.34;41.87;97771.47;4500656;31;20120;-77
2023/07/29 07:20:50;;;;;;;4.07;1.70;;;;;;;30.50;40.80;97771.09;4502156;31;20409;-77
2023/07/29 07:23:18;;;;;;;4.95;1.70;;;;;;;30.21;40.28;97760.75;4500027;31;20106;-77
2023/07/29 07:25:45;;;;;;;2.08;1.35;;;;;;;29.93;41.19;97768.75;4500751;31;20569;-78
2023/07/29 07:28:12;;;;;;;3.45;1.70;;;;;;;28.87;42.86;97772.25;4500009;31;20092;-77
2023/07/29 07:30:41;;;;;;;6.53;2.00;;;;;;;29.04;43.39;97779.03;4500570;31;20084;-77
2023/07/29 07:33:08;;;;;;;2.87;1.67;;;;;;;30.11;40.85;97773.59;4502334;31;20122;-77
2023/07/29 07:35:35;;;;;;;3.37;1.85;;;;;;;30.36;40.68;97774.75;4503278;31;20108;-77
2023/07/29 07:38:03;;;;;;;4.32;1.70;;;;;;;30.23;40.33;97770.19;4503347;31;20545;-77
2023/07/29 07:40:31;;;;;;;4.53;1.77;;;;;;;30.82;40.06;97771.47;4503815;31;20076;-77
2023/07/29 07:42:58;;;;;;;5.03;1.87;;;;;;;30.80;39.54;97769.00;4503873;31;20182;-77
2023/07/29 07:45:25;;;;;;;3.70;1.90;;;;;;;30.48;39.26;97767.00;4503994;31;20121;-77
2023/07/29 07:47:53;;;;;;;4.82;2.10;;;;;;;30.71;38.51;97767.53;4504164;31;20155;-77
2023/07/29 07:50:20;;;;;;;4.03;1.80;;;;;;;31.00;38.72;97763.72;4502671;31;20133;-77
2023/07/29 07:52:47;;;;;;;3.85;2.00;;;;;;;31.54;37.17;97773.44;4504116;31;20138;-78
2023/07/29 07:55:14;;;;;;;3.42;1.75;;;;;;;31.45;36.97;97777.31;4504059;31;20087;-78
2023/07/29 07:57:41;;;;;;;5.03;1.98;;;;;;;31.73;37.37;97770.97;4502571;31;20087;-78
2023/07/29 08:00:09;;;;;;;5.03;1.90;;;;;;;32.01;36.30;97774.25;4504065;31;20072;-78
2023/07/29 08:02:36;;;;;;;6.32;1.90;;;;;;;32.83;35.10;97778.09;4503965;31;20084;-78
2023/07/29 08:05:04;;;;;;;3.40;1.75;;;;;;;33.22;33.92;97786.94;4503665;31;20076;-78
2023/07/29 08:07:31;;;;;;;4.22;1.80;;;;;;;32.88;35.45;97774.81;4503939;31;20175;-77
2023/07/29 08:09:57;;;;;;;5.43;2.05;;;;;;;31.49;35.86;97775.09;4503924;31;20124;-77
2023/07/29 08:12:24;;;;;;;5.97;1.90;;;;;;;32.80;34.50;97774.00;4503706;31;20123;-78
2023/07/29 08:14:51;;;;;;;6.18;2.10;;;;;;;33.77;33.39;97771.09;4503921;31;20087;-78
2023/07/29 08:17:18;;;;;;;3.03;1.55;;;;;;;34.64;31.92;97775.34;4503854;31;20454;-78
2023/07/29 08:19:45;;;;;;;3.37;1.75;;;;;;;34.42;31.50;97774.97;4503332;31;20102;-77
2023/07/29 08:22:12;;;;;;;4.95;1.75;;;;;;;33.32;31.98;97772.06;4503913;31;20118;-77
2023/07/29 08:24:39;;;;;;;3.58;1.80;;;;;;;33.76;31.78;97766.78;4503597;31;20163;-78
2023/07/29 08:27:06;;;;;;;3.67;1.90;;;;;;;34.55;32.26;97767.81;4503706;31;20087;-78
2023/07/29 08:29:33;;;;;;;4.05;1.80;;;;;;;35.18;30.15;97767.41;4503862;31;20140;-78
2023/07/29 08:32:00;;;;;;;3.35;1.80;;;;;;;35.52;30.09;97768.56;4503492;31;20096;-78
2023/07/29 08:34:27;;;;;;;4.43;1.75;;;;;;;36.13;28.23;97761.91;4503769;31;20114;-78
2023/07/29 08:36:54;;;;;;;3.55;1.70;;;;;;;36.08;29.28;97761.81;4503628;31;20109;-78
2023/07/29 08:39:21;;;;;;;3.20;1.75;;;;;;;34.72;30.59;97760.81;4503258;31;20429;-78
2023/07/29 08:42:00;;;;;;;5.05;2.05;;;;;;;33.88;31.87;97760.50;4503516;31;20149;-78
2023/07/29 08:44:33;;;;;;;4.35;1.85;;;;;;;33.85;31.43;97765.47;4503781;31;20777;-77
2023/07/29 08:47:00;;;;;;;4.37;1.95;;;;;;;34.02;31.41;97765.72;4503351;31;20080;-78
2023/07/29 08:49:28;;;;;;;4.00;1.70;;;;;;;33.84;30.77;97761.97;4503774;31;20080;-78
2023/07/29 08:51:57;;;;;;;3.17;1.80;;;;;;;34.41;31.28;97761.81;4503715;31;20144;-78
2023/07/29 08:54:24;;;;;;;3.78;1.75;;;;;;;34.44;31.34;97769.41;4503308;31;20087;-78
2023/07/29 08:56:51;;;;;;;4.35;2.10;;;;;;;34.03;30.67;97767.34;4503552;31;20106;-77
2023/07/29 08:59:19;;;;;;;4.00;1.90;;;;;;;34.32;30.51;97763.94;4502426;31;20080;-78
2023/07/29 09:01:47;;;;;;;4.22;1.87;;;;;;;34.21;30.82;97754.81;4503280;31;20135;-78
2023/07/29 09:04:14;;;;;;;4.12;1.80;;;;;;;34.77;29.99;97764.47;4503511;31;20521;-78
2023/07/29 09:06:43;;;;;;;5.53;1.87;;;;;;;35.35;30.09;97757.66;4503069;31;20171;-78
2023/07/29 09:09:10;;;;;;;5.47;2.08;;;;;;;35.88;28.38;97765.69;4502379;31;20106;-78
2023/07/29 09:11:37;;;;;;;4.57;1.85;;;;;;;36.37;27.78;97758.19;4503545;31;20093;-78
2023/07/29 09:14:04;;;;;;;4.85;1.85;;;;;;;36.58;28.08;97754.03;4503146;31;20122;-78
2023/07/29 09:16:31;;;;;;;5.32;2.03;;;;;;;36.10;29.85;97754.34;4503405;31;20461;-78
2023/07/29 09:19:01;;;;;;;4.62;2.10;;;;;;;36.31;29.55;97745.66;4502263;31;20215;-78
2023/07/29 09:21:28;;;;;;;3.35;1.90;;;;;;;36.41;30.16;97748.56;4503133;31;20102;-78
2023/07/29 09:23:56;;;;;;;4.03;1.90;;;;;;;36.29;27.69;97745.06;4502353;31;20467;-78
2023/07/29 09:26:27;;;;;;;3.53;2.00;;;;;;;37.07;28.90;97749.84;4503445;31;20087;-78
2023/07/29 09:28:56;;;;;;;3.42;1.75;;;;;;;36.46;28.80;97751.34;4502982;31;20129;-77
2023/07/29 09:31:25;;;;;;;6.18;2.17;;;;;;;35.06;30.26;97740.56;4503319;31;20104;-78
2023/07/29 09:33:59;;;;;;;4.05;1.90;;;;;;;34.72;31.38;97742.88;4502157;31;20168;-78
2023/07/29 09:36:27;;;;;;;5.32;2.20;;;;;;;34.88;31.64;97740.62;4503017;31;20103;-78
2023/07/29 09:38:55;;;;;;;6.78;2.00;;;;;;;33.39;34.28;97734.59;4502971;31;20072;-78
2023/07/29 09:41:27;;;;;;;4.00;2.00;;;;;;;33.39;34.18;97734.59;4503187;31;20147;-78
2023/07/29 09:43:58;;;;;;;5.57;2.30;;;;;;;33.86;34.77;97732.31;4503005;31;20127;-77
2023/07/29 09:46:27;;;;;;;4.07;2.20;;;;;;;33.34;34.58;97723.69;4501972;31;20091;-77
2023/07/29 09:48:55;;;;;;;5.25;2.10;;;;;;;32.60;37.02;97729.72;4501526;31;20084;-78
2023/07/29 09:51:22;;;;;;;5.10;2.20;;;;;;;33.77;34.32;97728.28;4503044;31;20092;-78
2023/07/29 09:53:51;;;;;;;5.22;2.00;;;;;;;33.58;34.58;97725.56;4501018;31;20156;-78
2023/07/29 09:56:18;;;;;;;4.82;2.10;;;;;;;34.58;33.79;97720.00;4502639;31;20095;-77
2023/07/29 09:58:45;;;;;;;6.00;2.30;;;;;;;34.87;33.18;97721.00;4501793;31;20414;-77
2023/07/29 10:01:14;;;;;;;5.90;2.30;;;;;;;34.93;34.49;97716.63;4503143;31;20092;-78
2023/07/29 10:03:41;;;;;;;5.40;2.50;;;;;;;33.99;35.23;97720.66;4502760;31;20099;-77
2023/07/29 10:06:08;;;;;;;4.93;2.37;;;;;;;33.22;36.14;97718.25;4501827;31;20084;-77
2023/07/29 10:08:43;;;;;;;5.35;2.53;;;;;;;33.51;37.75;97716.00;4501790;31;20117;-77
2023/07/29 10:11:11;;;;;;;5.03;2.50;;;;;;;33.39;36.79;97715.88;4502760;31;20096;-77
2023/07/29 10:13:38;;;;;;;4.20;2.35;;;;;;;33.06;37.26;97719.56;4502812;31;20080;-77
2023/07/29 10:16:05;;;;;;;5.62;2.35;;;;;;;33.05;36.67;97725.97;4502804;31;20106;-78
2023/07/29 10:18:33;;;;;;;5.47;2.47;;;;;;;32.88;38.48;97726.72;4501449;31;20088;-78
2023/07/29 10:21:00;;;;;;;5.12;2.47;;;;;;;33.12;37.71;97725.94;4502908;31;20110;-77
2023/07/29 10:23:32;;;;;;;4.25;2.20;;;;;;;33.14;37.69;97726.53;4502976;31;20156;-78
2023/07/29 10:26:04;;;;;;;3.55;2.00;;;;;;;33.23;35.56;97721.72;4501404;31;20087;-78
2023/07/29 10:28:32;;;;;;;4.95;2.40;;;;;;;32.95;38.47;97722.94;4502822;31;20087;-78
2023/07/29 10:30:59;;;;;;;6.93;2.33;;;;;;;33.30;37.72;97712.63;4502515;31;20092;-77
2023/07/29 10:33:27;;;;;;;4.47;2.12;;;;;;;33.64;36.87;97711.31;4502754;31;20096;-78
2023/07/29 10:35:54;;;;;;;4.80;2.20;;;;;;;33.82;35.92;97725.78;4502618;31;20080;-78
2023/07/29 10:38:22;;;;;;;4.43;2.10;;;;;;;33.53;37.48;97721.94;4501906;31;20159;-77
2023/07/29 10:40:56;;;;;;;5.32;2.45;;;;;;;33.20;36.72;97731.00;4501477;31;20104;-78
2023/07/29 10:43:34;;;;;;;4.25;2.17;;;;;;;32.80;37.13;97738.44;4501447;31;20450;-77
2023/07/29 10:46:18;;;;;;;4.55;2.03;;;;;;;32.81;37.77;97737.41;4502138;31;20460;-78
2023/07/29 10:48:53;;;;;;;4.40;2.05;;;;;;;33.62;36.68;97734.00;4502383;31;20076;-78
2023/07/29 10:51:34;;;;;;;4.37;2.35;;;;;;;33.97;35.80;97734.28;4502520;31;20111;-78
2023/07/29 10:54:03;;;;;;;5.40;2.37;;;;;;;33.94;35.71;97732.06;4502097;31;20388;-78
2023/07/29 10:56:34;;;;;;;4.90;2.30;;;;;;;34.30;34.63;97730.41;4502232;31;20088;-78
2023/07/29 10:59:11;;;;;;;4.87;2.10;;;;;;;34.44;35.73;97729.22;4501968;31;20087;-78
2023/07/29 11:01:43;;;;;;;3.75;2.12;;;;;;;33.85;37.30;97722.66;4502114;31;20381;-78
2023/07/29 11:04:28;;;;;;;7.18;2.50;;;;;;;33.74;35.85;97726.06;4502257;31;20100;-77
2023/07/29 11:07:07;;;;;;;4.15;2.25;;;;;;;33.87;35.04;97715.25;4504052;31;20179;-78
2023/07/29 11:09:49;;;;;;;5.22;2.40;;;;;;;34.18;35.21;97727.66;4504407;31;20469;-78
2023/07/29 11:12:37;;;;;;;6.18;2.20;;;;;;;34.49;34.13;97721.34;4504338;31;20149;-78
2023/07/29 11:15:10;;;;;;;5.05;2.15;;;;;;;34.26;33.68;97730.06;4503823;31;20106;-79
2023/07/29 11:17:43;;;;;;;7.57;2.35;;;;;;;34.38;34.58;97722.09;4504277;31;20102;-78
2023/07/29 11:20:11;;;;;;;7.30;2.20;;;;;;;34.74;33.30;97724.69;4504137;31;20431;-78
2023/07/29 11:22:38;;;;;;;4.15;2.10;;;;;;;34.33;35.17;97724.59;4504401;31;20445;-78
2023/07/29 11:25:09;;;;;;;3.90;2.25;;;;;;;33.61;35.52;97732.34;4504222;31;20388;-78
2023/07/29 11:27:36;;;;;;;3.28;2.00;;;;;;;33.72;35.08;97728.97;4503953;31;20115;-78
2023/07/29 11:30:06;;;;;;;4.32;2.25;;;;;;;34.35;36.19;97725.19;4504308;31;20430;-78
2023/07/29 11:32:35;;;;;;;4.50;2.00;;;;;;;33.66;36.56;97724.47;4504218;31;20101;-78
2023/07/29 11:35:10;;;;;;;3.97;2.00;;;;;;;33.48;35.43;97727.09;4503775;31;20088;-78
2023/07/29 11:37:38;;;;;;;7.63;2.37;;;;;;;33.51;35.79;97722.16;4503885;31;20127;-78
2023/07/29 11:40:06;;;;;;;6.43;2.30;;;;;;;33.61;35.42;97713.63;4504211;31;20088;-78